Time;durP1;ratioP1;P1;durP2;ratioP2;P2;SDS_P1;SDS_P2;PMS_P1;PMS_P2;Temp;Humidity;BMP_temperature;BMP_pressure;BME280_temperature;BME280_humidity;BME280_pressure;Samples;Min_cycle;Max_cycle;Signal;HPM_P1;HPM_P2
2021/11/02 00:02:04;;;;;;;1.27;0.80;;;11.60;1.00;;;;;;5047828;28;20955;-80
2021/11/02 00:04:33;;;;;;;1.17;0.90;;;11.60;1.00;;;;;;5047120;28;20447;-81
2021/11/02 00:07:01;;;;;;;0.90;0.90;;;11.60;1.00;;;;;;5048986;28;20451;-80
2021/11/02 00:09:37;;;;;;;0.90;0.80;;;11.70;1.00;;;;;;5044038;28;20477;-80
2021/11/02 00:12:09;;;;;;;0.90;0.90;;;11.90;1.00;;;;;;5040799;28;20497;-81
2021/11/02 00:14:37;;;;;;;0.70;0.70;;;11.70;1.00;;;;;;5046542;28;20451;-81
2021/11/02 00:17:10;;;;;;;1.10;1.00;;;11.80;99.90;;;;;;5038453;28;20841;-81
2021/11/02 00:19:41;;;;;;;0.80;0.80;;;11.60;1.00;;;;;;5037919;28;20471;-79
2021/11/02 00:22:15;;;;;;;1.20;1.10;;;11.50;1.00;;;;;;5047268;28;20456;-80
2021/11/02 00:27:31;;;;;;;1.53;0.90;;;11.90;1.00;;;;;;5058582;28;20735;-80
2021/11/02 00:29:59;;;;;;;1.10;0.93;;;12.00;99.90;;;;;;5051823;28;20477;-80
2021/11/02 00:32:28;;;;;;;1.60;1.43;;;12.10;99.90;;;;;;5048890;28;20470;-80
2021/11/02 00:34:58;;;;;;;2.20;1.10;;;12.10;99.90;;;;;;5039568;28;20461;-80
2021/11/02 00:37:26;;;;;;;1.40;1.20;;;12.00;99.90;;;;;;5046231;28;20456;-80
2021/11/02 00:39:54;;;;;;;1.37;1.00;;;12.00;99.90;;;;;;5052255;28;20481;-79
2021/11/02 00:42:27;;;;;;;2.50;0.97;;;12.00;99.90;;;;;;5054221;28;20491;-79
2021/11/02 00:44:59;;;;;;;1.20;0.90;;;12.00;99.90;;;;;;5046381;28;20452;-80
2021/11/02 00:47:27;;;;;;;1.67;1.30;;;11.90;99.90;;;;;;5053109;28;20451;-80
2021/11/02 00:49:56;;;;;;;1.10;0.90;;;12.00;99.90;;;;;;5055005;28;20483;-80
2021/11/02 00:52:24;;;;;;;1.10;1.00;;;12.00;99.90;;;;;;5051144;28;20459;-80
2021/11/02 00:54:53;;;;;;;1.10;1.00;;;11.90;99.90;;;;;;5040027;28;20513;-80
2021/11/02 00:57:22;;;;;;;0.90;0.87;;;11.80;99.90;;;;;;5041941;28;20456;-80
2021/11/02 00:59:50;;;;;;;1.00;0.80;;;11.70;99.90;;;;;;5040363;28;20460;-80
2021/11/02 01:02:20;;;;;;;1.30;1.00;;;11.60;99.90;;;;;;5039752;28;20800;-80
2021/11/02 01:04:49;;;;;;;1.10;1.00;;;11.60;99.90;;;;;;5051371;28;20447;-80
2021/11/02 01:07:17;;;;;;;2.63;1.27;;;11.50;1.00;;;;;;5049968;28;20467;-82
2021/11/02 01:09:46;;;;;;;0.97;0.80;;;11.70;99.90;;;;;;5037686;28;20494;-82
2021/11/02 01:12:14;;;;;;;0.90;0.90;;;11.50;99.90;;;;;;5043948;28;20440;-82
2021/11/02 01:14:46;;;;;;;0.80;0.80;;;11.40;1.00;;;;;;5033559;28;21071;-82
2021/11/02 01:17:14;;;;;;;1.33;0.83;;;11.60;1.00;;;;;;5046968;28;20854;-81
2021/11/02 01:19:44;;;;;;;2.07;0.70;;;11.70;99.90;;;;;;5051548;28;20490;-82
2021/11/02 01:22:12;;;;;;;1.27;1.10;;;11.80;99.90;;;;;;5049739;28;20470;-81
2021/11/02 01:24:40;;;;;;;0.90;0.80;;;11.60;99.90;;;;;;5044654;28;20471;-81
2021/11/02 01:27:08;;;;;;;1.10;1.00;;;11.70;99.90;;;;;;5047748;28;20440;-81
2021/11/02 01:29:37;;;;;;;1.00;0.87;;;11.50;1.00;;;;;;5040909;28;21119;-82
2021/11/02 01:32:05;;;;;;;1.80;0.93;;;11.50;1.00;;;;;;5047106;28;21000;-81
2021/11/02 01:34:34;;;;;;;2.20;0.80;;;11.20;1.00;;;;;;5041901;28;21303;-82
2021/11/02 01:37:04;;;;;;;0.70;0.70;;;11.30;1.00;;;;;;5043602;28;20457;-81
2021/11/02 01:39:32;;;;;;;1.90;1.17;;;11.50;1.00;;;;;;5040871;28;20472;-80
2021/11/02 01:42:01;;;;;;;2.67;0.93;;;11.70;1.00;;;;;;5038766;28;20451;-80
2021/11/02 01:44:30;;;;;;;0.90;0.90;;;11.70;1.00;;;;;;5045650;28;20470;-80
2021/11/02 01:46:58;;;;;;;5.53;1.10;;;11.30;1.00;;;;;;5040287;28;20502;-81
2021/11/02 01:49:27;;;;;;;0.97;0.90;;;11.40;1.00;;;;;;5041899;28;20468;-80
2021/11/02 01:51:56;;;;;;;0.87;0.77;;;11.00;99.90;;;;;;5032599;28;21079;-80
2021/11/02 01:54:25;;;;;;;1.70;1.17;;;10.90;99.90;;;;;;5048483;28;20452;-80
2021/11/02 01:56:53;;;;;;;1.70;1.10;;;11.00;99.90;;;;;;5051995;28;20454;-81
2021/11/02 01:59:25;;;;;;;2.63;0.70;;;11.20;90.00;;;;;;5034465;28;20486;-81
2021/11/02 02:02:02;;;;;;;0.90;0.60;;;11.30;56.20;;;;;;5039725;28;20443;-81
2021/11/02 02:04:45;;;;;;;3.97;0.90;;;11.40;1.00;;;;;;5038918;28;20614;-81
2021/11/02 02:07:22;;;;;;;0.70;0.70;;;11.40;1.00;;;;;;5039544;28;20452;-80
2021/11/02 02:09:59;;;;;;;2.50;0.70;;;11.50;1.00;;;;;;5041277;28;20478;-81
2021/11/02 02:12:41;;;;;;;0.80;0.70;;;11.50;1.00;;;;;;5051463;28;20452;-80
2021/11/02 02:15:17;;;;;;;0.80;0.70;;;11.60;1.00;;;;;;5047599;28;20553;-80
2021/11/02 02:17:52;;;;;;;0.77;0.60;;;11.40;1.00;;;;;;5048511;28;20826;-81
2021/11/02 02:20:31;;;;;;;0.93;0.70;;;11.50;1.00;;;;;;5043955;28;20939;-80
2021/11/02 02:23:21;;;;;;;0.70;0.70;;;11.40;1.00;;;;;;5046153;28;20449;-80
2021/11/02 02:25:57;;;;;;;0.80;0.73;;;11.20;1.00;;;;;;5044553;28;21005;-81
2021/11/02 02:28:31;;;;;;;0.70;0.70;;;11.30;1.00;;;;;;5036132;28;20883;-80
2021/11/02 02:31:03;;;;;;;3.27;0.73;;;11.30;1.00;;;;;;5045558;28;21003;-81
2021/11/02 02:33:37;;;;;;;0.73;0.67;;;11.10;1.00;;;;;;5042724;28;20498;-81
2021/11/02 02:36:06;;;;;;;1.20;0.90;;;11.10;1.00;;;;;;5044104;28;20460;-80
2021/11/02 02:38:40;;;;;;;0.80;0.80;;;10.80;44.30;;;;;;5039241;28;20467;-80
2021/11/02 02:41:09;;;;;;;0.80;0.80;;;10.80;99.90;;;;;;5047481;28;20854;-81
2021/11/02 02:43:41;;;;;;;0.90;0.90;;;10.80;99.90;;;;;;5039948;28;20451;-81
2021/11/02 02:46:10;;;;;;;2.30;0.90;;;10.90;54.20;;;;;;5047398;28;20493;-81
2021/11/02 02:48:40;;;;;;;0.70;0.70;;;10.90;99.90;;;;;;5042303;28;20493;-80
2021/11/02 02:51:10;;;;;;;0.70;0.70;;;10.90;52.90;;;;;;5037460;28;20467;-80
2021/11/02 02:53:43;;;;;;;1.33;0.80;;;11.20;1.00;;;;;;5048839;28;20439;-81
2021/11/02 02:56:12;;;;;;;0.93;0.80;;;11.20;1.00;;;;;;5045591;28;20857;-80
2021/11/02 02:58:45;;;;;;;0.90;0.80;;;11.10;1.00;;;;;;5044613;28;20472;-81
2021/11/02 03:01:16;;;;;;;0.83;0.80;;;11.10;1.00;;;;;;5046082;28;20454;-80
2021/11/02 03:03:48;;;;;;;3.40;0.83;;;11.20;1.00;;;;;;5041532;28;21022;-81
2021/11/02 03:06:23;;;;;;;0.77;0.77;;;11.00;1.00;;;;;;5040064;28;20447;-80
2021/11/02 03:08:52;;;;;;;1.47;1.10;;;10.50;1.00;;;;;;5046208;28;20506;-80
2021/11/02 03:11:28;;;;;;;0.87;0.87;;;10.40;99.90;;;;;;5047809;28;20510;-80
2021/11/02 03:14:00;;;;;;;0.97;0.80;;;10.20;1.00;;;;;;5043200;28;20470;-80
2021/11/02 03:16:40;;;;;;;2.87;0.70;;;10.40;99.90;;;;;;5046136;28;20500;-81
2021/11/02 03:44:56;;;;;;;1.37;0.70;;;10.30;99.90;;;;;;5004790;28;20509;-81
2021/11/02 03:50:27;;;;;;;1.27;0.80;;;9.90;1.00;;;;;;5045508;28;20540;-80
2021/11/02 03:55:53;;;;;;;2.60;0.90;;;10.40;99.90;;;;;;5039954;28;20451;-81
2021/11/02 03:58:25;;;;;;;0.57;0.57;;;10.30;99.90;;;;;;5046662;28;20463;-80
2021/11/02 04:23:49;;;;;;;2.73;0.90;;;11.20;1.00;;;;;;5047255;28;20447;-81
2021/11/02 05:08:59;;;;;;;1.27;0.80;;;10.50;1.00;;;;;;5040099;28;20476;-79
2021/11/02 05:12:20;;;;;;;3.23;0.70;;;10.20;1.00;;;;;;5042422;28;20483;-80
2021/11/02 05:48:37;;;;;;;1.27;0.87;;;10.20;1.00;;;;;;5043982;28;20845;-80
2021/11/02 05:56:46;;;;;;;1.00;0.70;;;10.20;1.00;;;;;;5038413;28;20450;-80
2021/11/02 05:59:26;;;;;;;0.50;0.50;;;10.20;1.00;;;;;;5045755;28;20528;-80
2021/11/02 06:02:06;;;;;;;1.00;1.00;;;10.40;1.00;;;;;;5042393;28;21014;-80
2021/11/02 06:05:00;;;;;;;0.80;0.80;;;10.50;1.00;;;;;;5046385;28;20459;-80
2021/11/02 06:07:48;;;;;;;0.90;0.80;;;10.60;1.00;;;;;;5040609;28;20991;-80
2021/11/02 06:10:46;;;;;;;0.70;0.70;;;10.70;1.00;;;;;;5038491;28;20462;-80
2021/11/02 06:30:29;;;;;;;1.63;0.70;;;10.80;1.00;;;;;;4996000;28;20557;-79
2021/11/02 06:33:08;;;;;;;0.80;0.70;;;10.80;99.90;;;;;;5044474;28;20862;-77
2021/11/02 06:35:49;;;;;;;0.70;0.70;;;10.90;99.90;;;;;;5030955;28;20460;-78
2021/11/02 06:38:56;;;;;;;0.80;0.70;;;10.80;99.90;;;;;;5040203;28;20564;-78
2021/11/02 06:47:27;;;;;;;0.90;0.70;;;10.40;1.00;;;;;;5016394;28;20459;-78
2021/11/02 06:50:32;;;;;;;0.87;0.73;;;10.60;1.00;;;;;;5057723;28;20472;-79
2021/11/02 07:15:13;;;;;;;0.70;0.70;;;10.90;1.00;;;;;;5048701;28;20448;-81
2021/11/02 07:17:04;;;;;;;1.00;0.80;;;11.00;1.00;;;;;;5045950;28;20447;-80
2021/11/02 07:19:36;;;;;;;0.87;0.87;;;10.80;1.00;;;;;;5049547;28;20517;-81
2021/11/02 07:22:18;;;;;;;0.90;0.80;;;10.50;1.00;;;;;;5048059;28;20467;-80
2021/11/02 07:25:03;;;;;;;0.70;0.70;;;10.40;1.00;;;;;;5049670;28;20463;-80
2021/11/02 07:27:54;;;;;;;0.80;0.80;;;10.20;88.50;;;;;;5037539;28;20475;-81
2021/11/02 08:46:22;;;;;;;0.60;0.60;;;11.50;99.90;;;;;;5040880;28;20458;-80
2021/11/02 08:48:55;;;;;;;0.50;0.50;;;11.50;99.90;;;;;;5045151;28;20475;-80
2021/11/02 08:51:26;;;;;;;0.50;0.50;;;11.40;99.90;;;;;;5049486;28;20933;-81
2021/11/02 08:53:55;;;;;;;0.80;0.80;;;11.20;99.90;;;;;;5042830;28;20474;-80
2021/11/02 08:56:24;;;;;;;0.53;0.53;;;11.30;99.90;;;;;;5051701;28;20542;-82
2021/11/02 08:58:56;;;;;;;0.50;0.50;;;11.00;99.90;;;;;;5043969;28;20490;-80
2021/11/02 09:01:46;;;;;;;1.40;0.80;;;10.90;99.90;;;;;;5039880;28;20459;-81
2021/11/02 09:04:18;;;;;;;0.60;0.60;;;10.70;1.00;;;;;;5044851;28;20457;-80
2021/11/02 09:06:51;;;;;;;0.80;0.80;;;10.50;1.00;;;;;;5047231;28;20441;-81
2021/11/02 09:09:20;;;;;;;2.67;0.77;;;10.50;1.00;;;;;;5043952;28;20533;-81
2021/11/02 09:11:49;;;;;;;3.37;0.70;;;10.60;94.30;;;;;;5050880;28;20479;-80
2021/11/02 09:14:19;;;;;;;1.63;0.67;;;10.90;1.00;;;;;;5053476;28;20877;-81
2021/11/02 09:16:48;;;;;;;0.80;0.80;;;10.80;71.10;;;;;;5049708;28;20819;-81
2021/11/02 09:19:17;;;;;;;3.37;0.70;;;10.60;99.90;;;;;;5051919;28;20544;-80
2021/11/02 09:21:45;;;;;;;2.33;0.80;;;10.40;99.90;;;;;;5050895;28;20991;-81
2021/11/02 09:24:18;;;;;;;0.90;0.90;;;10.40;1.00;;;;;;5047838;28;20451;-80
2021/11/02 09:26:46;;;;;;;1.10;0.60;;;10.40;1.00;;;;;;5042108;28;20549;-79
2021/11/02 09:29:15;;;;;;;0.70;0.50;;;10.40;99.90;;;;;;5042603;28;20492;-80
2021/11/02 09:31:43;;;;;;;2.17;1.00;;;10.40;99.90;;;;;;5037123;28;20460;-79
2021/11/02 09:34:12;;;;;;;0.60;0.60;;;10.40;99.90;;;;;;5041147;28;20481;-78
2021/11/02 09:36:45;;;;;;;0.97;0.70;;;10.20;1.00;;;;;;5041418;28;21036;-79
2021/11/02 09:39:14;;;;;;;1.40;0.77;;;10.00;1.00;;;;;;5057143;28;20477;-80
2021/11/02 09:42:18;;;;;;;0.70;0.70;;;10.20;81.00;;;;;;5038501;28;20807;-79
2021/11/02 09:45:24;;;;;;;0.90;0.80;;;10.20;1.00;;;;;;5035628;28;20881;-81
2021/11/02 09:48:28;;;;;;;1.37;0.80;;;10.30;1.00;;;;;;5063959;28;20474;-79
2021/11/02 09:51:28;;;;;;;0.93;0.77;;;9.90;1.00;;;;;;4998066;28;20456;-79
2021/11/02 09:54:35;;;;;;;1.50;0.90;;;9.70;1.00;;;;;;5045594;28;20578;-80
2021/11/02 09:57:28;;;;;;;1.10;0.80;;;9.80;1.00;;;;;;5044427;28;20448;-80
2021/11/02 10:00:12;;;;;;;1.00;1.00;;;9.90;1.00;;;;;;5036648;28;20876;-79
2021/11/02 10:03:17;;;;;;;1.03;0.70;;;9.80;1.00;;;;;;5045936;28;20944;-80
2021/11/02 10:06:24;;;;;;;1.90;0.83;;;9.90;99.90;;;;;;5046657;28;20470;-80
2021/11/02 10:09:02;;;;;;;1.63;0.77;;;10.00;1.00;;;;;;5044768;28;20477;-80
2021/11/02 10:11:39;;;;;;;0.90;0.90;;;10.00;1.00;;;;;;5042992;28;20834;-80
2021/11/02 10:14:20;;;;;;;1.17;0.90;;;10.00;1.00;;;;;;5046447;28;21049;-80
2021/11/02 10:17:05;;;;;;;1.07;0.80;;;9.90;1.00;;;;;;5045796;28;20504;-79
2021/11/02 10:20:09;;;;;;;0.90;0.90;;;9.80;1.00;;;;;;5046763;28;20506;-78
2021/11/02 10:23:00;;;;;;;0.80;0.80;;;9.90;1.00;;;;;;5044555;28;20459;-79
2021/11/02 10:26:05;;;;;;;1.17;1.07;;;10.00;99.90;;;;;;5043896;28;20471;-79
2021/11/02 10:29:07;;;;;;;0.93;0.80;;;10.20;99.90;;;;;;5045894;28;20837;-79
2021/11/02 10:31:44;;;;;;;1.30;0.97;;;10.50;1.00;;;;;;5042744;28;20447;-79
2021/11/02 10:34:27;;;;;;;1.77;1.20;;;10.60;99.90;;;;;;5045303;28;20479;-79
2021/11/02 10:37:10;;;;;;;1.30;0.80;;;10.80;1.00;;;;;;5036915;28;20448;-79
2021/11/02 10:39:55;;;;;;;0.80;0.77;;;10.40;99.90;;;;;;5045935;28;21077;-80
2021/11/02 10:42:35;;;;;;;0.90;0.90;;;10.50;1.00;;;;;;5044319;28;20462;-79
2021/11/02 10:45:20;;;;;;;4.27;2.07;;;10.50;1.00;;;;;;5036553;28;20490;-80
2021/11/02 10:48:03;;;;;;;1.13;1.03;;;10.30;1.00;;;;;;5041339;28;20452;-80
2021/11/02 10:50:37;;;;;;;3.43;1.10;;;10.20;1.00;;;;;;5044224;28;20525;-80
2021/11/02 10:53:06;;;;;;;1.10;1.00;;;10.40;1.00;;;;;;5048535;28;20474;-80
2021/11/02 10:55:48;;;;;;;4.30;0.90;;;10.30;1.00;;;;;;5042616;28;20483;-80
2021/11/02 10:58:30;;;;;;;0.93;0.90;;;10.50;1.00;;;;;;5046508;28;20483;-80
2021/11/02 11:01:02;;;;;;;1.57;0.70;;;10.60;1.00;;;;;;5039938;28;20631;-80
2021/11/02 11:03:32;;;;;;;0.70;0.70;;;10.60;1.00;;;;;;5042269;28;20491;-80
2021/11/02 11:06:05;;;;;;;1.00;0.90;;;10.60;1.00;;;;;;5039823;28;20443;-79
2021/11/02 11:08:36;;;;;;;1.33;0.90;;;10.70;99.90;;;;;;5048977;28;20486;-80
2021/11/02 11:11:08;;;;;;;0.80;0.80;;;10.80;99.90;;;;;;5035443;28;20475;-79
2021/11/02 11:13:38;;;;;;;0.80;0.80;;;10.90;1.00;;;;;;5045627;28;21001;-79
2021/11/02 11:16:12;;;;;;;1.33;0.90;;;11.00;99.90;;;;;;5043428;28;20486;-79
2021/11/02 11:19:05;;;;;;;1.23;0.80;;;11.00;1.00;;;;;;5043461;28;20588;-79
2021/11/02 11:21:36;;;;;;;1.13;0.90;;;10.60;99.90;;;;;;5043606;28;20451;-79
2021/11/02 11:24:13;;;;;;;0.57;0.57;;;10.30;99.90;;;;;;5055161;28;20459;-79
2021/11/02 11:26:48;;;;;;;0.70;0.70;;;10.40;99.90;;;;;;5039692;28;20464;-81
2021/11/02 11:29:21;;;;;;;0.73;0.73;;;10.40;1.00;;;;;;5045579;28;20486;-80
2021/11/02 11:31:50;;;;;;;0.70;0.70;;;10.30;99.90;;;;;;5044890;28;20454;-80
2021/11/02 11:34:19;;;;;;;0.70;0.70;;;10.50;1.00;;;;;;5049650;28;20475;-81
2021/11/02 11:36:51;;;;;;;0.80;0.70;;;10.70;74.00;;;;;;5044581;28;20833;-80
2021/11/02 11:39:22;;;;;;;1.57;0.70;;;10.50;99.90;;;;;;5041074;28;20486;-80
2021/11/02 11:41:52;;;;;;;0.60;0.60;;;10.50;20.60;;;;;;5041324;28;20464;-80
2021/11/02 11:44:27;;;;;;;0.50;0.50;;;10.60;39.70;;;;;;5040803;28;21162;-79
2021/11/02 11:47:07;;;;;;;0.70;0.60;;;10.70;1.00;;;;;;5046954;28;20545;-80
2021/11/02 11:49:37;;;;;;;0.57;0.57;;;10.90;1.00;;;;;;5044996;28;20486;-80
2021/11/02 11:52:09;;;;;;;1.43;0.60;;;10.90;1.00;;;;;;5046664;28;20849;-80
2021/11/02 11:54:45;;;;;;;0.83;0.70;;;10.90;99.90;;;;;;5040194;28;20458;-80
2021/11/02 11:57:15;;;;;;;0.50;0.50;;;11.00;1.00;;;;;;5046906;28;20454;-80
2021/11/02 11:59:47;;;;;;;0.83;0.60;;;11.20;99.90;;;;;;5030157;28;20997;-79
2021/11/02 12:02:27;;;;;;;0.40;0.40;;;11.30;1.00;;;;;;5041685;28;20530;-80
2021/11/02 12:05:02;;;;;;;0.57;0.57;;;11.00;1.00;;;;;;5037580;28;20441;-80
2021/11/02 12:07:35;;;;;;;0.70;0.50;;;10.70;99.90;;;;;;5042909;28;20545;-80
2021/11/02 12:10:06;;;;;;;0.57;0.57;;;10.60;1.00;;;;;;5037235;28;20495;-80
2021/11/02 12:12:36;;;;;;;0.63;0.50;;;10.60;99.90;;;;;;5044218;28;20448;-80
2021/11/02 12:15:10;;;;;;;0.40;0.40;;;10.80;1.00;;;;;;5035392;28;20491;-80
2021/11/02 12:17:43;;;;;;;0.93;0.60;;;11.00;99.90;;;;;;5043813;28;20458;-79
2021/11/02 12:20:15;;;;;;;0.90;0.80;;;11.00;99.90;;;;;;5041652;28;20453;-80
2021/11/02 12:22:54;;;;;;;0.60;0.50;;;11.20;99.90;;;;;;5038319;28;20950;-81
2021/11/02 12:25:32;;;;;;;0.83;0.50;;;11.30;73.60;;;;;;5023494;28;21018;-79
2021/11/02 12:28:01;;;;;;;0.60;0.40;;;11.30;1.00;;;;;;5040894;28;20478;-79
2021/11/02 12:30:29;;;;;;;0.50;0.50;;;11.40;1.00;;;;;;5044277;28;20809;-80
2021/11/02 12:32:59;;;;;;;1.77;0.40;;;11.30;1.00;;;;;;5042608;28;20554;-79
2021/11/02 12:35:41;;;;;;;0.60;0.50;;;11.30;1.00;;;;;;5044924;28;20916;-80
2021/11/02 12:38:11;;;;;;;0.40;0.40;;;11.40;1.00;;;;;;5042556;28;20906;-80
2021/11/02 12:40:42;;;;;;;0.60;0.40;;;11.40;1.00;;;;;;5043347;28;20487;-79
2021/11/02 12:43:24;;;;;;;0.70;0.40;;;11.50;1.00;;;;;;5043717;28;20459;-80
2021/11/02 12:45:54;;;;;;;0.63;0.63;;;11.70;1.00;;;;;;5047461;28;21057;-78
2021/11/02 12:48:23;;;;;;;2.10;0.80;;;11.90;1.00;;;;;;5045974;28;20992;-77
2021/11/02 12:51:22;;;;;;;1.10;0.70;;;12.20;1.00;;;;;;5045485;28;20465;-78
2021/11/02 12:54:02;;;;;;;1.10;0.60;;;12.40;1.00;;;;;;5046871;28;20456;-78
2021/11/02 12:56:34;;;;;;;0.40;0.40;;;12.40;1.00;;;;;;5040985;28;20496;-78
2021/11/02 12:59:14;;;;;;;0.70;0.50;;;12.30;99.90;;;;;;5039934;28;20479;-79
2021/11/02 13:01:43;;;;;;;0.60;0.60;;;12.30;99.90;;;;;;5045137;28;20685;-79
2021/11/02 13:04:12;;;;;;;0.40;0.40;;;12.30;99.90;;;;;;5048953;28;20487;-80
2021/11/02 13:06:47;;;;;;;0.43;0.40;;;12.30;99.90;;;;;;5038288;28;20451;-80
2021/11/02 13:09:18;;;;;;;0.50;0.40;;;12.20;99.90;;;;;;5034376;28;20482;-80
2021/11/02 13:11:48;;;;;;;0.87;0.40;;;12.20;99.90;;;;;;5047601;28;20523;-80
2021/11/02 13:14:16;;;;;;;0.40;0.40;;;11.90;1.00;;;;;;5040627;28;20469;-79
2021/11/02 13:16:56;;;;;;;1.00;0.53;;;11.90;1.00;;;;;;5047962;28;20514;-79
2021/11/02 13:19:37;;;;;;;1.27;0.40;;;11.70;1.00;;;;;;5047654;28;20478;-80
2021/11/02 13:22:14;;;;;;;1.47;0.40;;;11.40;1.00;;;;;;5048631;28;20532;-78
2021/11/02 13:25:00;;;;;;;0.60;0.53;;;11.60;1.00;;;;;;5051433;28;20550;-79
2021/11/02 13:27:37;;;;;;;0.40;0.40;;;11.70;1.00;;;;;;5046578;28;20461;-79
2021/11/02 13:30:25;;;;;;;4.60;0.47;;;11.40;1.00;;;;;;5038446;28;20506;-77
2021/11/02 13:32:58;;;;;;;0.57;0.40;;;11.20;1.00;;;;;;5041039;28;20458;-76
2021/11/02 13:35:46;;;;;;;0.40;0.40;;;11.30;1.00;;;;;;5035349;28;20476;-78
2021/11/02 13:38:23;;;;;;;0.40;0.40;;;11.50;1.00;;;;;;5042841;28;20482;-79
2021/11/02 13:40:54;;;;;;;0.30;0.30;;;11.40;99.90;;;;;;5047301;28;20509;-78
2021/11/02 13:43:28;;;;;;;0.40;0.40;;;11.40;99.90;;;;;;5043452;28;20451;-78
2021/11/02 13:45:57;;;;;;;0.40;0.40;;;11.10;99.90;;;;;;5046449;28;20951;-77
2021/11/02 13:48:26;;;;;;;1.03;0.40;;;11.10;99.90;;;;;;5037193;28;20502;-78
2021/11/02 13:50:58;;;;;;;0.40;0.40;;;11.20;99.90;;;;;;5043121;28;20464;-77
2021/11/02 13:53:32;;;;;;;0.40;0.40;;;11.20;99.90;;;;;;5043163;28;20453;-80
2021/11/02 13:56:02;;;;;;;0.40;0.40;;;11.20;99.90;;;;;;5044235;28;20480;-78
2021/11/02 13:58:31;;;;;;;0.40;0.40;;;11.30;99.90;;;;;;5038900;28;20541;-79
2021/11/02 14:01:00;;;;;;;0.40;0.40;;;11.60;99.90;;;;;;5040012;28;20475;-78
2021/11/02 14:03:32;;;;;;;0.60;0.40;;;11.70;99.90;;;;;;5042657;28;20460;-79
2021/11/02 14:06:02;;;;;;;0.50;0.50;;;11.90;99.90;;;;;;5035998;28;20449;-79
2021/11/02 14:08:33;;;;;;;0.40;0.40;;;11.90;99.90;;;;;;5048706;28;20679;-80
2021/11/02 14:11:03;;;;;;;0.30;0.30;;;12.10;99.90;;;;;;5047219;28;20459;-80
2021/11/02 14:13:46;;;;;;;0.37;0.37;;;11.80;99.90;;;;;;5042342;28;20486;-80
2021/11/02 14:16:16;;;;;;;0.40;0.40;;;11.70;99.90;;;;;;5048119;28;20561;-80
2021/11/02 14:18:44;;;;;;;0.70;0.40;;;11.60;99.90;;;;;;5037122;28;20603;-79
2021/11/02 14:21:12;;;;;;;0.40;0.40;;;11.70;99.90;;;;;;5040847;28;20932;-79
2021/11/02 14:23:46;;;;;;;0.50;0.43;;;11.60;99.90;;;;;;5044209;28;20538;-79
2021/11/02 14:26:19;;;;;;;0.40;0.40;;;11.70;99.90;;;;;;5039404;28;21050;-80
2021/11/02 14:28:50;;;;;;;0.50;0.50;;;11.80;99.90;;;;;;5048988;28;20475;-80
2021/11/02 14:31:46;;;;;;;0.40;0.40;;;11.80;99.90;;;;;;5044536;28;21180;-80
2021/11/02 14:34:48;;;;;;;0.40;0.40;;;11.70;99.90;;;;;;5007372;28;20464;-79
2021/11/02 14:37:19;;;;;;;0.90;0.43;;;11.70;99.90;;;;;;5038257;28;20475;-80
2021/11/02 14:39:58;;;;;;;1.03;0.40;;;11.60;99.90;;;;;;5043412;28;20483;-79
2021/11/02 14:42:42;;;;;;;2.50;0.40;;;11.30;99.90;;;;;;5047500;28;20450;-79
2021/11/02 14:45:11;;;;;;;0.80;0.40;;;11.30;99.90;;;;;;5041855;28;20448;-80
2021/11/02 14:47:40;;;;;;;0.50;0.40;;;11.00;1.00;;;;;;5040047;28;20952;-80
2021/11/02 14:50:44;;;;;;;0.60;0.40;;;11.00;1.00;;;;;;5045583;28;20882;-79
2021/11/02 14:53:18;;;;;;;0.40;0.40;;;11.00;1.00;;;;;;5037563;28;20471;-79
2021/11/02 14:55:51;;;;;;;0.40;0.40;;;11.10;1.00;;;;;;5042519;28;20484;-80
2021/11/02 14:58:52;;;;;;;0.40;0.40;;;11.00;99.90;;;;;;5041544;28;20486;-81
2021/11/02 15:01:25;;;;;;;0.50;0.50;;;11.10;1.00;;;;;;5042854;28;20457;-81
2021/11/02 15:03:57;;;;;;;0.50;0.50;;;11.10;1.00;;;;;;5051492;28;20542;-79
2021/11/02 15:06:34;;;;;;;0.50;0.40;;;11.20;1.00;;;;;;5040064;28;20443;-79
2021/11/02 15:09:05;;;;;;;1.10;0.40;;;11.30;99.90;;;;;;5043191;28;20486;-80
2021/11/02 15:11:33;;;;;;;0.63;0.63;;;11.30;99.90;;;;;;5048087;28;20837;-80
2021/11/02 15:14:06;;;;;;;0.40;0.40;;;11.10;1.00;;;;;;5043280;28;20463;-80
2021/11/02 15:16:42;;;;;;;0.50;0.50;;;11.20;99.90;;;;;;5044345;28;20504;-80
2021/11/02 15:19:11;;;;;;;0.50;0.50;;;11.10;1.00;;;;;;5042890;28;20543;-80
2021/11/02 15:21:41;;;;;;;0.50;0.50;;;10.90;1.00;;;;;;5041973;28;20985;-80
2021/11/02 15:24:20;;;;;;;1.50;0.50;;;11.00;1.00;;;;;;5047590;28;20490;-82
2021/11/02 15:26:53;;;;;;;0.43;0.40;;;11.00;1.00;;;;;;5045548;28;20452;-79
2021/11/02 15:29:24;;;;;;;2.20;0.70;;;10.90;14.70;;;;;;5035554;28;20482;-79
2021/11/02 15:32:04;;;;;;;0.50;0.50;;;11.00;99.90;;;;;;5039921;28;20516;-81
2021/11/02 15:34:41;;;;;;;0.90;0.50;;;11.10;99.90;;;;;;5036042;28;20457;-78
2021/11/02 15:37:11;;;;;;;0.60;0.60;;;10.90;99.90;;;;;;5040306;28;20475;-80
2021/11/02 15:39:54;;;;;;;1.03;0.60;;;10.90;99.90;;;;;;5038315;28;20538;-80
2021/11/02 15:42:31;;;;;;;0.70;0.50;;;10.90;95.60;;;;;;5036210;28;20443;-80
2021/11/02 15:45:04;;;;;;;0.70;0.60;;;10.60;99.90;;;;;;5056167;28;20464;-80
2021/11/02 15:47:34;;;;;;;0.60;0.60;;;10.60;99.90;;;;;;5041732;28;20457;-79
2021/11/02 15:50:05;;;;;;;0.50;0.50;;;10.60;1.00;;;;;;5035136;28;20483;-80
2021/11/02 15:52:36;;;;;;;0.60;0.60;;;10.70;99.90;;;;;;5043895;28;20451;-80
2021/11/02 15:55:07;;;;;;;0.97;0.50;;;10.60;1.00;;;;;;5048304;28;20455;-80
2021/11/02 15:57:40;;;;;;;2.50;0.83;;;10.80;99.90;;;;;;5037669;28;20851;-79
2021/11/02 16:00:14;;;;;;;0.80;0.60;;;10.90;99.90;;;;;;5043266;28;20453;-79
2021/11/02 16:02:45;;;;;;;0.60;0.60;;;10.80;99.90;;;;;;5050838;28;20453;-79
2021/11/02 16:05:18;;;;;;;2.30;0.60;;;10.90;99.90;;;;;;5051132;28;20894;-80
2021/11/02 16:07:50;;;;;;;6.33;0.80;;;11.10;90.30;;;;;;5051208;28;20470;-80
2021/11/02 16:10:23;;;;;;;1.00;0.90;;;11.00;99.90;;;;;;5033666;28;20961;-79
2021/11/02 16:12:52;;;;;;;1.27;0.87;;;10.90;99.90;;;;;;5046073;28;20459;-80
2021/11/02 16:15:26;;;;;;;1.07;0.80;;;10.90;99.90;;;;;;5041668;28;20948;-79
2021/11/02 16:18:00;;;;;;;0.70;0.70;;;10.90;99.90;;;;;;5045594;28;21007;-80
2021/11/02 16:20:30;;;;;;;1.13;0.60;;;10.80;99.90;;;;;;5041671;28;20463;-80
2021/11/02 16:23:02;;;;;;;1.50;0.70;;;10.80;99.90;;;;;;5044017;28;20470;-80
2021/11/02 16:25:50;;;;;;;0.50;0.50;;;10.80;99.90;;;;;;5046494;28;20476;-79
2021/11/02 16:28:20;;;;;;;1.60;0.60;;;10.90;99.90;;;;;;5040047;28;21100;-79
2021/11/02 16:30:53;;;;;;;0.53;0.53;;;10.90;99.90;;;;;;5049411;28;20455;-79
2021/11/02 16:33:32;;;;;;;1.00;0.73;;;11.00;99.90;;;;;;5037146;28;21014;-79
2021/11/02 16:36:17;;;;;;;1.30;0.77;;;11.00;99.90;;;;;;5046852;28;20443;-80
2021/11/02 16:38:46;;;;;;;1.13;0.60;;;11.20;99.90;;;;;;5049022;28;20540;-80
2021/11/02 16:41:22;;;;;;;1.33;1.23;;;11.50;99.90;;;;;;5050242;28;20837;-80
2021/11/02 16:43:53;;;;;;;1.20;1.00;;;11.70;90.00;;;;;;5045504;28;20988;-80
2021/11/02 16:46:28;;;;;;;2.40;1.30;;;11.80;33.30;;;;;;5045916;28;20466;-81
2021/11/02 16:49:03;;;;;;;1.10;1.00;;;12.00;1.00;;;;;;5049731;28;20477;-81
2021/11/02 16:51:51;;;;;;;0.90;0.90;;;12.00;1.00;;;;;;5044404;28;20463;-80
2021/11/02 16:54:20;;;;;;;0.97;0.70;;;12.10;1.00;;;;;;5040557;28;20455;-80
2021/11/02 16:57:05;;;;;;;1.27;0.90;;;12.10;1.00;;;;;;5053342;28;20475;-80
2021/11/02 16:59:59;;;;;;;1.83;0.73;;;12.10;1.00;;;;;;5043356;28;20486;-80
2021/11/02 17:02:30;;;;;;;0.70;0.70;;;12.10;1.00;;;;;;5028492;28;20492;-79
2021/11/02 17:05:09;;;;;;;2.57;0.80;;;12.20;1.00;;;;;;5051228;28;20483;-80
2021/11/02 17:07:40;;;;;;;1.80;1.00;;;12.10;1.00;;;;;;5050418;28;20465;-80
2021/11/02 17:10:30;;;;;;;0.80;0.80;;;12.00;1.00;;;;;;5046949;28;20571;-80
2021/11/02 17:13:03;;;;;;;1.83;0.70;;;12.00;1.00;;;;;;5047653;28;20489;-80
2021/11/02 17:15:33;;;;;;;1.17;1.07;;;11.90;1.00;;;;;;5049821;28;20459;-79
2021/11/02 17:18:05;;;;;;;1.93;0.80;;;11.80;1.00;;;;;;5047523;28;20481;-81
2021/11/02 17:20:34;;;;;;;1.87;0.70;;;11.70;1.00;;;;;;5043217;28;20966;-79
2021/11/02 17:23:03;;;;;;;1.03;0.70;;;11.60;1.00;;;;;;5044091;28;20685;-79
2021/11/02 17:25:32;;;;;;;1.23;0.80;;;11.30;1.00;;;;;;5045486;28;20462;-79
2021/11/02 17:28:01;;;;;;;1.23;1.17;;;11.10;99.90;;;;;;5035577;28;20470;-79
2021/11/02 17:30:32;;;;;;;1.17;0.87;;;11.00;99.90;;;;;;5040190;28;20572;-79
2021/11/02 17:33:03;;;;;;;1.00;0.90;;;11.10;99.90;;;;;;5046238;28;20452;-79
2021/11/02 17:35:31;;;;;;;1.40;1.00;;;11.00;99.90;;;;;;5041861;28;20454;-79
2021/11/02 17:38:02;;;;;;;1.20;0.80;;;11.10;99.90;;;;;;5041261;28;20476;-81
2021/11/02 17:40:32;;;;;;;1.40;0.90;;;11.20;99.90;;;;;;5036726;28;20463;-80
2021/11/02 17:43:02;;;;;;;1.23;0.70;;;11.40;1.00;;;;;;5043978;28;20543;-80
2021/11/02 17:45:31;;;;;;;0.70;0.70;;;11.40;1.00;;;;;;5046009;28;20455;-80
2021/11/02 17:48:02;;;;;;;0.90;0.90;;;11.40;1.00;;;;;;5039847;28;20452;-80
2021/11/02 17:50:31;;;;;;;1.10;0.77;;;11.50;1.00;;;;;;5044624;28;20509;-80
2021/11/02 17:53:00;;;;;;;1.27;0.80;;;11.50;1.00;;;;;;5044812;28;21139;-78
2021/11/02 17:55:28;;;;;;;0.80;0.80;;;11.50;1.00;;;;;;5042286;28;20526;-80